イスタンブル の空港の天気 - METARとTAF

アタテュルク国際空港(イスタンブル) ( LTBA / IST ) - トルコ イスタンブル
飛行場実況気象(Metar)
観測時間08/25 21:50 EET (08/25 18:50 UTC)
風向・風速北北東 7m/s
視程10km以上
天気現象
少しの雲 雲底高度 520m
全天の4割程度の雲 雲底高度 3050m
気温26℃
湿度79%
気圧1016hPa
METARLTBA 251850Z 03013KT 9999 FEW017 SCT100 26/22 Q1016 NOSIG RMK RWY17L 03012KT RWY05 02014KT RWY23 04011KT
過去の天気等 Google飛行場航空写真 Wunderground天気予報

過去48時間のMETAR

飛行場予報(TAF)
発表時間: 8/25 19:40 EET (8/25 16:40 UTC)
予報対象時間: 25日21時 EET ~ 27日3時 EET
風向・風速北北東 7m/s
視程10km以上
なし
25日21時 EET ~ 25日24時 EET に徐々に
全天の4割程度の雲 雲底高度 760m
26日10時 EET ~ 26日13時 EET に徐々に
風向・風速北東 10m/s 瞬間風速 15m/s
視程10km以上
なし
26日17時 EET ~ 26日20時 EET に徐々に
風向・風速北北東 5m/s
全天の4割程度の雲 雲底高度 760m
TAF LTBA 251640Z 2518/2624 03014KT CAVOK
BECMG 2518/2521 SCT025
BECMG 2607/2610 04020G30KT CAVOK
BECMG 2614/2617 03010KT SCT025